createdAt,value
2022-10-14T00:04:30.021Z,6.20
2022-10-14T00:09:31.833Z,5.55
2022-10-14T00:14:33.850Z,5.10
2022-10-14T00:19:35.635Z,4.70
2022-10-14T00:24:38.185Z,4.05
2022-10-14T00:29:40.031Z,4.57
2022-10-14T00:34:41.966Z,5.05
2022-10-14T00:39:43.746Z,4.78
2022-10-14T00:44:46.466Z,4.88
2022-10-14T00:49:48.589Z,6.55
2022-10-14T00:54:56.915Z,15.30
2022-10-14T01:00:04.306Z,15.68
2022-10-14T01:05:09.327Z,12.32
2022-10-14T01:10:20.190Z,10.10
2022-10-14T01:15:27.398Z,10.25
2022-10-14T01:20:52.457Z,6.30
2022-10-14T01:26:25.079Z,5.95
2022-10-14T01:31:35.124Z,5.28
2022-10-14T01:36:57.606Z,4.80
2022-10-14T01:42:05.735Z,4.30
2022-10-14T01:47:09.738Z,3.50
2022-10-14T01:52:23.092Z,3.28
2022-10-14T01:57:30.060Z,3.63
2022-10-14T02:02:37.592Z,3.97
2022-10-14T02:07:46.141Z,3.75
2022-10-14T02:13:16.435Z,4.28
2022-10-14T02:18:21.292Z,3.72
2022-10-14T02:23:28.277Z,3.58
2022-10-14T02:33:39.470Z,3.90
2022-10-14T02:38:43.732Z,2.88
2022-10-14T02:43:46.519Z,4.47
2022-10-14T02:48:49.753Z,3.72
2022-10-14T02:53:51.724Z,4.07
2022-10-14T02:58:53.607Z,3.95
2022-10-14T03:03:58.105Z,3.17
2022-10-14T03:09:00.535Z,4.00
2022-10-14T03:14:02.955Z,3.75
2022-10-14T03:19:05.502Z,3.67
2022-10-14T03:24:22.562Z,3.13
2022-10-14T03:29:39.268Z,3.60
2022-10-14T03:34:49.972Z,3.53
2022-10-14T03:39:58.097Z,3.45
2022-10-14T03:45:00.591Z,3.80
2022-10-14T03:50:05.766Z,3.28
2022-10-14T03:55:21.805Z,4.07
2022-10-14T04:00:25.796Z,3.92
2022-10-14T04:05:41.077Z,4.00
2022-10-14T04:10:52.841Z,4.50
2022-10-14T04:15:55.265Z,3.70
2022-10-14T04:21:10.614Z,4.03
2022-10-14T04:26:13.187Z,3.88
2022-10-14T04:31:15.693Z,4.25
2022-10-14T04:36:27.947Z,3.90
2022-10-14T04:41:33.014Z,4.07
2022-10-14T04:46:36.516Z,4.90
2022-10-14T04:51:38.608Z,4.45
2022-10-14T04:56:59.000Z,4.07
2022-10-14T05:02:01.596Z,4.43
2022-10-14T05:07:26.626Z,3.67
2022-10-14T05:12:37.797Z,3.92
2022-10-14T05:17:39.830Z,4.35
2022-10-14T05:22:46.085Z,4.47
2022-10-14T05:27:48.289Z,4.22
2022-10-14T05:32:51.667Z,3.95
2022-10-14T05:38:00.727Z,4.25
2022-10-14T05:43:08.600Z,3.80
2022-10-14T05:48:15.508Z,3.92
2022-10-14T05:53:19.047Z,3.63
2022-10-14T05:58:25.225Z,4.13
2022-10-14T06:03:27.942Z,3.70
2022-10-14T06:08:30.316Z,4.30
2022-10-14T06:13:32.203Z,4.32
2022-10-14T06:18:35.462Z,3.90
2022-10-14T06:23:37.468Z,4.40
2022-10-14T06:28:39.467Z,4.03
2022-10-14T06:33:43.627Z,4.13
2022-10-14T06:38:45.457Z,3.67
2022-10-14T06:43:47.262Z,4.15
2022-10-14T06:48:50.451Z,4.55
2022-10-14T06:53:52.650Z,4.47
2022-10-14T06:58:55.846Z,4.03
2022-10-14T07:03:57.859Z,4.82
2022-10-14T07:08:59.684Z,4.20
2022-10-14T07:14:01.585Z,4.53
2022-10-14T07:19:03.748Z,4.18
2022-10-14T07:24:06.619Z,4.53
2022-10-14T07:29:08.939Z,3.95
2022-10-14T07:34:10.943Z,5.20
2022-10-14T07:39:13.226Z,4.53
2022-10-14T07:44:17.278Z,4.70
2022-10-14T07:49:21.858Z,4.57
2022-10-14T07:54:26.868Z,4.47
2022-10-14T07:59:29.448Z,4.28
2022-10-14T08:04:31.701Z,3.15
2022-10-14T08:09:36.698Z,2.67
2022-10-14T08:14:38.926Z,2.58
2022-10-14T08:19:40.843Z,2.65
2022-10-14T08:24:43.108Z,2.65
2022-10-14T08:29:45.396Z,3.20
2022-10-14T08:34:47.387Z,2.42
2022-10-14T08:39:49.328Z,2.60
2022-10-14T08:45:01.429Z,2.55
2022-10-14T08:50:37.654Z,2.85
2022-10-14T08:55:47.311Z,2.33
2022-10-14T09:00:52.175Z,2.50
2022-10-14T09:06:04.117Z,2.85
2022-10-14T09:11:12.503Z,2.42
2022-10-14T09:16:51.846Z,2.53
2022-10-14T09:21:56.331Z,2.30
2022-10-14T09:27:16.326Z,2.40
2022-10-14T09:32:28.217Z,1.90
2022-10-14T09:37:33.326Z,2.10
2022-10-14T09:42:56.646Z,1.83
2022-10-14T09:48:07.791Z,2.33
2022-10-14T09:53:32.837Z,2.10
2022-10-14T09:58:53.691Z,2.95
2022-10-14T10:03:56.852Z,2.30
2022-10-14T10:09:00.409Z,1.88
2022-10-14T10:14:16.697Z,2.72
2022-10-14T10:19:29.967Z,1.50
2022-10-14T10:24:32.381Z,1.60
2022-10-14T10:29:35.636Z,1.58
2022-10-14T10:34:46.666Z,1.58
2022-10-14T10:40:20.248Z,1.83
2022-10-14T10:45:28.638Z,1.30
2022-10-14T10:50:47.128Z,1.40
2022-10-14T10:56:13.974Z,1.50
2022-10-14T11:01:37.328Z,1.20
2022-10-14T11:07:03.874Z,1.40
2022-10-14T11:12:20.858Z,2.23
2022-10-14T11:17:26.032Z,1.40
2022-10-14T11:22:56.459Z,1.50
2022-10-14T11:28:25.286Z,1.90
2022-10-14T11:34:04.856Z,1.85
2022-10-14T11:39:37.157Z,1.50
2022-10-14T11:44:42.635Z,1.75
2022-10-14T11:49:56.995Z,1.30
2022-10-14T11:55:09.720Z,1.48
2022-10-14T12:00:33.148Z,1.98
2022-10-14T12:06:12.783Z,1.60
2022-10-14T12:11:59.385Z,1.50
2022-10-14T12:17:05.951Z,1.73
2022-10-14T12:22:25.708Z,1.80
2022-10-14T12:27:28.949Z,1.20
2022-10-14T12:32:32.030Z,1.60
2022-10-14T12:37:35.688Z,1.85
2022-10-14T12:43:02.556Z,1.60
2022-10-14T12:48:12.905Z,2.03
2022-10-14T12:53:22.435Z,1.73
2022-10-14T12:58:42.034Z,2.63
2022-10-14T13:04:20.946Z,1.88
2022-10-14T13:09:33.537Z,1.52
2022-10-14T13:15:23.771Z,1.30
2022-10-14T13:20:34.686Z,1.80
2022-10-14T13:25:36.573Z,2.10
2022-10-14T13:30:51.407Z,1.50
2022-10-14T13:36:07.812Z,1.00
2022-10-14T13:41:18.766Z,3.03
2022-10-14T13:46:42.968Z,1.23
2022-10-14T13:51:53.653Z,1.30
2022-10-14T13:57:38.228Z,3.90
2022-10-14T14:02:25.717Z,4.00
2022-10-14T14:08:21.761Z,5.32
2022-10-14T14:12:57.011Z,5.45
2022-10-14T14:17:58.808Z,3.88
2022-10-14T14:23:00.802Z,4.75
2022-10-14T14:28:05.994Z,5.05
2022-10-14T14:33:12.298Z,3.72
2022-10-14T14:38:35.282Z,2.15
2022-10-14T14:43:42.346Z,2.55
2022-10-14T14:48:54.511Z,2.15
2022-10-14T14:53:56.855Z,2.77
2022-10-14T14:59:19.751Z,3.25
2022-10-14T15:04:25.511Z,3.05
2022-10-14T15:09:54.323Z,4.43
2022-10-14T15:15:01.023Z,5.20
2022-10-14T15:20:05.922Z,3.50
2022-10-14T15:25:30.514Z,3.65
2022-10-14T15:30:41.081Z,4.13
2022-10-14T15:35:45.687Z,3.65
2022-10-14T15:40:49.162Z,3.75
2022-10-14T15:46:16.263Z,4.43
2022-10-14T15:51:20.283Z,4.40
2022-10-14T15:56:22.329Z,3.30
2022-10-14T16:01:24.274Z,3.42
2022-10-14T16:06:29.459Z,4.00
2022-10-14T16:11:31.673Z,3.00
2022-10-14T16:16:39.241Z,3.42
2022-10-14T16:21:41.282Z,4.32
2022-10-14T16:26:43.112Z,7.57
2022-10-14T16:31:49.715Z,9.43
2022-10-14T16:36:51.845Z,7.03
2022-10-14T16:41:53.617Z,6.60
2022-10-14T16:47:16.012Z,9.50
2022-10-14T16:52:19.352Z,8.20
2022-10-14T16:57:21.521Z,9.10
2022-10-14T17:02:32.050Z,9.05
2022-10-14T17:07:34.107Z,9.98
2022-10-14T17:12:37.153Z,9.02
2022-10-14T17:17:40.222Z,10.07
2022-10-14T17:22:43.054Z,9.98
2022-10-14T17:27:45.063Z,8.80
2022-10-14T17:32:46.961Z,9.90
2022-10-14T17:37:48.705Z,9.52
2022-10-14T17:42:50.583Z,8.55
2022-10-14T17:47:54.620Z,9.77
2022-10-14T17:52:58.989Z,8.90
2022-10-14T17:58:00.777Z,9.70
2022-10-14T18:03:02.711Z,9.45
2022-10-14T18:08:05.145Z,8.75
2022-10-14T18:13:07.085Z,8.77
2022-10-14T18:18:09.394Z,9.25
2022-10-14T18:23:11.446Z,9.38
2022-10-14T18:28:13.380Z,10.45
2022-10-14T18:33:15.155Z,10.50
2022-10-14T18:38:16.978Z,9.52
2022-10-14T18:43:18.792Z,8.68
2022-10-14T18:48:22.244Z,8.32
2022-10-14T18:53:25.052Z,10.70
2022-10-14T18:58:26.936Z,9.75
2022-10-14T19:03:28.772Z,9.48
2022-10-14T19:08:30.762Z,7.15
2022-10-14T19:13:32.915Z,7.70
2022-10-14T19:18:35.668Z,9.35
2022-10-14T19:23:39.124Z,7.32
2022-10-14T19:28:41.224Z,8.10
2022-10-14T19:33:45.207Z,7.93
2022-10-14T19:38:57.974Z,8.00
2022-10-14T19:44:01.016Z,7.38
2022-10-14T19:49:04.385Z,7.82
2022-10-14T19:54:06.696Z,10.23
2022-10-14T19:59:09.134Z,9.43
2022-10-14T20:04:11.551Z,7.75
2022-10-14T20:09:14.846Z,9.40
2022-10-14T20:14:18.632Z,7.13
2022-10-14T20:19:20.396Z,8.77
2022-10-14T20:24:22.212Z,8.00
2022-10-14T20:29:24.007Z,7.85
2022-10-14T20:34:25.790Z,9.38
2022-10-14T20:39:27.722Z,7.75
2022-10-14T20:44:29.504Z,5.90
2022-10-14T20:49:31.312Z,5.72
2022-10-14T20:54:33.086Z,6.05
2022-10-14T20:59:36.284Z,4.85
2022-10-14T21:04:38.304Z,4.72
2022-10-14T21:09:40.105Z,5.43
2022-10-14T21:14:42.286Z,4.40
2022-10-14T21:19:44.094Z,3.10
2022-10-14T21:24:45.832Z,3.20
2022-10-14T21:29:50.766Z,2.63
2022-10-14T21:34:52.573Z,3.13
2022-10-14T21:39:54.327Z,3.30
2022-10-14T21:44:56.115Z,3.03
2022-10-14T21:49:57.862Z,2.80
2022-10-14T21:54:59.648Z,3.50
2022-10-14T22:00:01.422Z,2.60
2022-10-14T22:05:04.064Z,2.67
2022-10-14T22:10:26.261Z,2.25
2022-10-14T22:15:28.001Z,2.05
2022-10-14T22:20:29.762Z,2.22
2022-10-14T22:25:34.788Z,2.45
2022-10-14T22:30:37.142Z,2.42
2022-10-14T22:35:38.921Z,2.70
2022-10-14T22:40:40.663Z,2.55
2022-10-14T22:45:42.447Z,2.53
2022-10-14T22:50:44.238Z,2.13
2022-10-14T22:55:53.887Z,2.15
2022-10-14T23:00:55.748Z,2.63
2022-10-14T23:06:06.902Z,2.60
2022-10-14T23:11:13.245Z,2.45
2022-10-14T23:16:18.160Z,2.30
2022-10-14T23:21:19.921Z,3.15
2022-10-14T23:26:24.394Z,2.67
2022-10-14T23:31:29.484Z,3.60
2022-10-14T23:36:31.300Z,4.95
2022-10-14T23:41:33.182Z,3.78
2022-10-14T23:46:34.928Z,4.50
2022-10-14T23:51:36.743Z,4.75
2022-10-14T23:56:38.587Z,5.70
